createdAt,value
2019-03-25T00:00:33.802Z,22.34
2019-03-25T00:02:35.398Z,22.30
2019-03-25T00:04:37.048Z,22.29
2019-03-25T00:06:38.647Z,22.27
2019-03-25T00:08:40.246Z,22.27
2019-03-25T00:10:41.883Z,22.26
2019-03-25T00:12:43.468Z,22.25
2019-03-25T00:14:45.076Z,22.24
2019-03-25T00:16:46.688Z,22.23
2019-03-25T00:18:48.286Z,22.21
2019-03-25T00:20:49.928Z,22.21
2019-03-25T00:22:51.520Z,22.18
2019-03-25T00:24:53.101Z,22.16
2019-03-25T00:26:54.670Z,22.14
2019-03-25T00:28:56.286Z,22.13
2019-03-25T00:30:57.927Z,22.12
2019-03-25T00:32:59.515Z,22.13
2019-03-25T00:35:01.085Z,22.14
2019-03-25T00:37:02.701Z,22.13
2019-03-25T00:39:04.312Z,22.13
2019-03-25T00:41:05.924Z,22.12
2019-03-25T00:43:07.520Z,22.12
2019-03-25T00:45:09.138Z,22.11
2019-03-25T00:47:10.748Z,22.08
2019-03-25T00:49:12.352Z,22.06
2019-03-25T00:51:13.975Z,22.06
2019-03-25T00:53:15.588Z,22.10
2019-03-25T00:55:17.176Z,22.10
2019-03-25T00:57:18.759Z,22.08
2019-03-25T00:59:20.359Z,22.07
2019-03-25T01:01:21.987Z,22.05
2019-03-25T01:03:23.590Z,22.03
2019-03-25T01:05:25.199Z,22.06
2019-03-25T01:07:26.784Z,22.05
2019-03-25T01:09:28.368Z,22.04
2019-03-25T01:11:29.996Z,22.07
2019-03-25T01:13:31.603Z,22.08
2019-03-25T01:15:33.198Z,22.10
2019-03-25T01:17:34.857Z,22.08
2019-03-25T01:19:36.444Z,22.06
2019-03-25T01:21:38.025Z,22.07
2019-03-25T01:23:39.646Z,22.10
2019-03-25T01:25:41.252Z,22.11
2019-03-25T01:27:42.859Z,22.14
2019-03-25T01:29:44.473Z,22.14
2019-03-25T01:31:46.096Z,22.15
2019-03-25T01:33:47.744Z,22.15
2019-03-25T01:35:49.341Z,22.16
2019-03-25T01:37:50.979Z,22.16
2019-03-25T01:39:52.594Z,22.17
2019-03-25T01:41:54.188Z,22.17
2019-03-25T01:43:55.832Z,22.18
2019-03-25T01:45:57.452Z,22.19
2019-03-25T01:47:59.182Z,22.22
2019-03-25T01:50:00.793Z,22.24
2019-03-25T01:52:02.405Z,22.24
2019-03-25T01:54:04.017Z,22.20
2019-03-25T01:56:05.623Z,22.20
2019-03-25T01:58:07.208Z,22.21
2019-03-25T02:00:08.792Z,22.20
2019-03-25T02:02:10.392Z,22.21
2019-03-25T02:04:11.962Z,22.18
2019-03-25T02:06:13.574Z,22.16
2019-03-25T02:08:15.160Z,22.06
2019-03-25T02:10:16.768Z,22.18
2019-03-25T02:12:18.363Z,22.18
2019-03-25T02:14:19.952Z,22.14
2019-03-25T02:16:21.548Z,22.12
2019-03-25T02:18:23.132Z,22.11
2019-03-25T02:20:26.606Z,22.08
2019-03-25T02:22:26.487Z,22.05
2019-03-25T02:24:28.116Z,22.04
2019-03-25T02:26:29.722Z,22.03
2019-03-25T02:28:31.331Z,22.01
2019-03-25T02:30:32.939Z,22.00
2019-03-25T02:32:34.538Z,21.99
2019-03-25T02:34:36.183Z,21.95
2019-03-25T02:36:37.801Z,21.99
2019-03-25T02:38:39.402Z,22.04
2019-03-25T02:40:41.039Z,22.02
2019-03-25T02:42:42.631Z,21.99
2019-03-25T02:44:44.243Z,21.99
2019-03-25T02:46:45.856Z,22.09
2019-03-25T02:48:47.477Z,22.11
2019-03-25T02:50:49.061Z,22.14
2019-03-25T02:52:50.717Z,22.14
2019-03-25T02:54:52.333Z,22.18
2019-03-25T02:56:53.920Z,22.21
2019-03-25T02:58:55.560Z,22.25
2019-03-25T03:00:57.168Z,22.28
2019-03-25T03:02:58.788Z,22.31
2019-03-25T03:05:00.410Z,22.35
2019-03-25T03:07:01.985Z,22.36
2019-03-25T03:09:03.604Z,22.39
2019-03-25T03:11:05.243Z,22.42
2019-03-25T03:13:06.828Z,22.44
2019-03-25T03:15:08.411Z,22.43
2019-03-25T03:17:10.057Z,22.44
2019-03-25T03:19:11.648Z,22.42
2019-03-25T03:21:13.252Z,22.42
2019-03-25T03:23:14.847Z,22.42
2019-03-25T03:25:16.426Z,22.42
2019-03-25T03:27:18.014Z,22.43
2019-03-25T03:29:19.624Z,22.46
2019-03-25T03:31:21.233Z,22.47
2019-03-25T03:33:22.899Z,22.49
2019-03-25T03:35:24.489Z,22.45
2019-03-25T03:37:26.126Z,22.47
2019-03-25T03:39:27.707Z,22.45
2019-03-25T03:41:29.303Z,22.42
2019-03-25T03:43:30.921Z,22.41
2019-03-25T03:45:32.587Z,22.41
2019-03-25T03:47:34.197Z,22.41
2019-03-25T03:49:35.808Z,22.40
2019-03-25T03:51:37.400Z,22.41
2019-03-25T03:53:39.020Z,22.40
2019-03-25T03:55:40.613Z,22.39
2019-03-25T03:57:42.233Z,22.39
2019-03-25T03:59:43.845Z,22.38
2019-03-25T04:01:45.460Z,22.39
2019-03-25T04:03:47.108Z,22.38
2019-03-25T04:05:48.696Z,22.39
2019-03-25T04:07:50.278Z,22.12
2019-03-25T04:09:51.888Z,22.38
2019-03-25T04:11:53.480Z,22.38
2019-03-25T04:13:55.083Z,22.38
2019-03-25T04:15:56.691Z,22.38
2019-03-25T04:17:58.279Z,22.44
2019-03-25T04:19:59.889Z,22.45
2019-03-25T04:22:01.480Z,22.46
2019-03-25T04:24:03.083Z,22.46
2019-03-25T04:26:04.706Z,22.45
2019-03-25T04:28:06.286Z,22.44
2019-03-25T04:30:07.915Z,22.45
2019-03-25T04:32:09.520Z,22.46
2019-03-25T04:34:11.108Z,22.47
2019-03-25T04:36:12.751Z,22.47
2019-03-25T04:38:14.339Z,22.49
2019-03-25T04:40:15.943Z,22.48
2019-03-25T04:42:17.523Z,22.49
2019-03-25T04:44:19.095Z,22.53
2019-03-25T04:46:20.704Z,22.53
2019-03-25T04:48:22.292Z,22.53
2019-03-25T04:50:23.964Z,22.55
2019-03-25T04:52:25.562Z,22.54
2019-03-25T04:54:27.179Z,22.54
2019-03-25T04:56:39.137Z,22.58
2019-03-25T04:58:30.487Z,22.57
2019-03-25T05:00:32.101Z,22.57
2019-03-25T05:02:33.682Z,22.59
2019-03-25T05:04:35.277Z,22.56
2019-03-25T05:06:36.901Z,22.55
2019-03-25T05:08:38.515Z,22.51
2019-03-25T05:10:40.129Z,22.47
2019-03-25T05:12:41.736Z,22.43
2019-03-25T05:14:43.322Z,22.38
2019-03-25T05:16:44.944Z,22.34
2019-03-25T05:18:46.522Z,22.28
2019-03-25T05:20:48.114Z,22.22
2019-03-25T05:22:49.709Z,22.18
2019-03-25T05:24:51.286Z,22.16
2019-03-25T05:26:52.867Z,22.18
2019-03-25T05:28:54.476Z,22.19
2019-03-25T05:30:56.048Z,21.97
2019-03-25T05:32:57.662Z,22.28
2019-03-25T05:34:59.248Z,22.31
2019-03-25T05:37:00.833Z,22.36
2019-03-25T05:39:02.452Z,22.40
2019-03-25T05:41:04.059Z,22.42
2019-03-25T05:43:05.699Z,22.43
2019-03-25T05:45:07.284Z,22.44
2019-03-25T05:47:08.887Z,22.48
2019-03-25T05:49:10.527Z,22.48
2019-03-25T05:51:12.140Z,22.48
2019-03-25T05:53:13.752Z,22.45
2019-03-25T05:55:15.350Z,22.48
2019-03-25T05:57:16.960Z,22.56
2019-03-25T05:59:18.544Z,22.62
2019-03-25T06:01:20.132Z,22.64
2019-03-25T06:03:21.716Z,22.65
2019-03-25T06:05:23.319Z,22.67
2019-03-25T06:07:24.940Z,22.68
2019-03-25T06:09:26.553Z,22.68
2019-03-25T06:11:28.154Z,22.68
2019-03-25T06:13:29.767Z,22.71
2019-03-25T06:15:31.371Z,22.70
2019-03-25T06:17:32.965Z,22.70
2019-03-25T06:19:34.542Z,22.70
2019-03-25T06:21:36.145Z,22.70
2019-03-25T06:23:37.743Z,22.68
2019-03-25T06:25:39.339Z,22.65
2019-03-25T06:27:40.924Z,22.63
2019-03-25T06:29:42.527Z,22.63
2019-03-25T06:31:44.140Z,22.59
2019-03-25T06:33:45.764Z,22.55
2019-03-25T06:35:47.363Z,22.50
2019-03-25T06:37:49.008Z,22.48
2019-03-25T06:39:50.600Z,22.47
2019-03-25T06:41:52.179Z,22.47
2019-03-25T06:43:53.828Z,22.45
2019-03-25T06:45:55.502Z,22.46
2019-03-25T06:47:57.137Z,22.46
2019-03-25T06:49:58.748Z,22.44
2019-03-25T06:52:00.347Z,22.44
2019-03-25T06:54:01.948Z,22.46
2019-03-25T06:56:03.658Z,22.48
2019-03-25T06:58:05.245Z,22.53
2019-03-25T07:00:06.825Z,22.55
2019-03-25T07:02:08.437Z,22.59
2019-03-25T07:04:10.046Z,22.57
2019-03-25T07:06:11.651Z,22.56
2019-03-25T07:08:13.250Z,22.55
2019-03-25T07:10:14.846Z,22.54
2019-03-25T07:12:16.446Z,22.50
2019-03-25T07:14:18.052Z,22.51
2019-03-25T07:16:19.693Z,22.54
2019-03-25T07:18:21.300Z,22.59
2019-03-25T07:20:22.946Z,22.62
2019-03-25T07:22:24.558Z,22.65
2019-03-25T07:24:26.168Z,22.65
2019-03-25T07:26:27.788Z,22.61
2019-03-25T07:28:29.391Z,22.66
2019-03-25T07:30:30.970Z,22.74
2019-03-25T07:32:32.563Z,22.75
2019-03-25T07:34:34.148Z,22.76
2019-03-25T07:36:35.778Z,22.76
2019-03-25T07:38:37.368Z,22.76
2019-03-25T07:40:38.952Z,22.76
2019-03-25T07:42:42.796Z,22.76
2019-03-25T07:44:42.180Z,22.76
2019-03-25T07:46:43.820Z,22.77
2019-03-25T07:48:45.406Z,22.77
2019-03-25T07:50:46.994Z,22.76
2019-03-25T07:52:48.575Z,22.79
2019-03-25T07:54:50.188Z,23.01
2019-03-25T07:56:51.817Z,22.93
2019-03-25T07:58:53.442Z,22.89
2019-03-25T08:00:55.057Z,22.62
2019-03-25T08:02:56.740Z,22.54
2019-03-25T08:04:58.328Z,22.45
2019-03-25T08:06:59.959Z,22.41
2019-03-25T08:09:03.979Z,22.40
2019-03-25T08:11:03.319Z,22.36
2019-03-25T08:13:05.012Z,22.43
2019-03-25T08:15:06.599Z,22.42
2019-03-25T08:17:08.209Z,22.15
2019-03-25T08:19:09.823Z,22.03
2019-03-25T08:21:11.433Z,21.99
2019-03-25T08:23:13.080Z,21.95
2019-03-25T08:25:14.674Z,21.92
2019-03-25T08:27:16.287Z,21.88
2019-03-25T08:29:17.880Z,21.82
2019-03-25T08:31:19.505Z,21.78
2019-03-25T08:33:21.088Z,21.75
2019-03-25T08:35:22.696Z,21.75
2019-03-25T08:37:24.328Z,21.77
2019-03-25T08:39:25.927Z,21.77
2019-03-25T08:41:27.588Z,21.75
2019-03-25T08:43:29.781Z,21.82
2019-03-25T08:45:31.371Z,21.85
2019-03-25T08:47:32.964Z,21.89
2019-03-25T08:49:34.548Z,21.94
2019-03-25T08:51:36.156Z,21.85
2019-03-25T08:53:37.781Z,21.95
2019-03-25T08:55:39.383Z,21.96
2019-03-25T08:57:40.995Z,21.89
2019-03-25T08:59:42.608Z,22.09
2019-03-25T09:01:44.202Z,22.17
2019-03-25T09:03:45.895Z,22.24
2019-03-25T09:05:47.493Z,22.28
2019-03-25T09:07:49.080Z,22.33
2019-03-25T09:09:50.723Z,22.08
2019-03-25T09:11:52.316Z,22.39
2019-03-25T09:13:53.928Z,22.41
2019-03-25T09:15:55.517Z,22.41
2019-03-25T09:17:57.157Z,22.34
2019-03-25T09:19:58.748Z,22.45
2019-03-25T09:22:00.351Z,22.45
2019-03-25T09:24:02.000Z,22.43
2019-03-25T09:26:03.592Z,22.43
2019-03-25T09:28:05.235Z,22.40
2019-03-25T09:30:06.839Z,22.37
2019-03-25T09:32:08.498Z,22.31
2019-03-25T09:34:10.107Z,22.27
2019-03-25T09:36:11.682Z,22.23
2019-03-25T09:38:13.290Z,22.18
2019-03-25T09:40:14.904Z,22.12
2019-03-25T09:42:16.492Z,22.06
2019-03-25T09:44:18.134Z,22.02
2019-03-25T09:46:19.739Z,21.98
2019-03-25T09:48:21.328Z,21.94
2019-03-25T09:50:22.926Z,21.91
2019-03-25T09:52:24.538Z,21.85
2019-03-25T09:54:26.187Z,21.81
2019-03-25T09:56:27.774Z,21.77
2019-03-25T09:58:36.335Z,21.75
2019-03-25T10:00:31.099Z,21.76
2019-03-25T10:02:32.695Z,21.75
2019-03-25T10:04:34.347Z,21.71
2019-03-25T10:06:35.933Z,21.68
2019-03-25T10:08:37.516Z,21.69
2019-03-25T10:10:39.123Z,21.69
2019-03-25T10:12:40.712Z,21.71
2019-03-25T10:14:42.306Z,21.74
2019-03-25T10:16:43.911Z,21.81
2019-03-25T10:18:45.536Z,21.93
2019-03-25T10:20:47.111Z,22.00
2019-03-25T10:22:49.289Z,22.08
2019-03-25T10:24:50.935Z,22.16
2019-03-25T10:26:52.532Z,22.17
2019-03-25T10:28:54.169Z,22.23
2019-03-25T10:30:55.820Z,22.26
2019-03-25T10:32:57.494Z,22.29
2019-03-25T10:34:59.136Z,22.32
2019-03-25T10:37:00.776Z,22.35
2019-03-25T10:39:02.500Z,22.26
2019-03-25T10:41:04.143Z,22.44
2019-03-25T10:43:05.738Z,22.44
2019-03-25T10:45:07.312Z,22.50
2019-03-25T10:47:08.914Z,22.58
2019-03-25T10:49:10.496Z,22.74
2019-03-25T10:51:12.105Z,22.79
2019-03-25T10:53:13.711Z,22.88
2019-03-25T10:55:15.321Z,22.89
2019-03-25T10:57:16.988Z,23.03
2019-03-25T10:59:18.599Z,23.18
2019-03-25T11:01:20.809Z,23.22
2019-03-25T11:03:22.413Z,23.14
2019-03-25T11:05:24.005Z,22.81
2019-03-25T11:07:25.708Z,22.75
2019-03-25T11:09:27.280Z,22.54
2019-03-25T11:11:28.940Z,22.40
2019-03-25T11:13:30.553Z,22.34
2019-03-25T11:15:32.139Z,22.24
2019-03-25T11:17:33.728Z,22.20
2019-03-25T11:19:35.322Z,22.30
2019-03-25T11:21:36.968Z,22.41
2019-03-25T11:23:38.579Z,22.44
2019-03-25T11:25:40.199Z,22.45
2019-03-25T11:27:41.803Z,22.34
2019-03-25T11:29:43.411Z,22.14
2019-03-25T11:31:45.072Z,22.01
2019-03-25T11:33:46.668Z,21.98
2019-03-25T11:35:48.256Z,21.92
2019-03-25T11:37:49.868Z,21.90
2019-03-25T11:39:51.466Z,21.95
2019-03-25T11:41:53.127Z,22.19
2019-03-25T11:43:54.720Z,22.22
2019-03-25T11:45:56.328Z,22.31
2019-03-25T11:47:57.925Z,22.41
2019-03-25T11:49:59.534Z,22.47
2019-03-25T11:52:01.196Z,22.52
2019-03-25T11:54:02.783Z,22.59
2019-03-25T11:56:04.379Z,22.67
2019-03-25T11:58:05.980Z,22.70
2019-03-25T12:00:07.585Z,22.73
2019-03-25T12:02:17.245Z,22.54
2019-03-25T12:04:11.159Z,22.44
2019-03-25T12:06:12.810Z,22.42
2019-03-25T12:08:15.124Z,22.46
2019-03-25T12:10:16.737Z,22.60
2019-03-25T12:12:19.752Z,22.80
2019-03-25T12:14:21.368Z,22.97
2019-03-25T12:16:22.947Z,23.06
2019-03-25T12:18:24.610Z,22.92
2019-03-25T12:20:26.335Z,22.98
2019-03-25T12:22:27.944Z,22.92
2019-03-25T12:24:29.568Z,22.78
2019-03-25T12:26:31.179Z,22.49
2019-03-25T12:28:32.833Z,22.52
2019-03-25T12:30:34.432Z,22.44
2019-03-25T12:32:36.052Z,22.40
2019-03-25T12:34:37.739Z,22.34
2019-03-25T12:36:39.359Z,22.26
2019-03-25T12:38:40.965Z,22.18
2019-03-25T12:40:42.564Z,22.11
2019-03-25T12:42:44.191Z,22.04
2019-03-25T12:44:45.791Z,21.97
2019-03-25T12:46:47.375Z,21.90
2019-03-25T12:48:49.017Z,21.84
2019-03-25T12:50:50.604Z,21.78
2019-03-25T12:52:52.178Z,21.72
2019-03-25T12:54:53.806Z,21.68
2019-03-25T12:56:55.470Z,21.65
2019-03-25T12:58:57.251Z,21.63
2019-03-25T13:00:59.700Z,21.64
2019-03-25T13:03:01.278Z,21.89
2019-03-25T13:05:02.915Z,22.13
2019-03-25T13:07:04.537Z,22.21
2019-03-25T13:09:06.269Z,22.32
2019-03-25T13:11:07.948Z,22.34
2019-03-25T13:13:09.555Z,22.16
2019-03-25T13:15:11.163Z,22.03
2019-03-25T13:17:12.767Z,21.98
2019-03-25T13:19:14.416Z,22.02
2019-03-25T13:21:16.025Z,22.09
2019-03-25T13:23:17.611Z,22.31
2019-03-25T13:25:19.525Z,22.62
2019-03-25T13:27:21.128Z,22.81
2019-03-25T13:29:22.747Z,22.94
2019-03-25T13:31:24.348Z,23.02
2019-03-25T13:33:25.966Z,23.11
2019-03-25T13:35:27.553Z,23.09
2019-03-25T13:37:29.136Z,23.18
2019-03-25T13:39:30.759Z,23.21
2019-03-25T13:41:32.485Z,23.14
2019-03-25T13:43:34.057Z,23.06
2019-03-25T13:45:35.684Z,23.14
2019-03-25T13:47:37.412Z,23.10
2019-03-25T13:49:39.132Z,23.04
2019-03-25T13:51:40.797Z,23.01
2019-03-25T13:53:43.171Z,22.93
2019-03-25T13:55:44.774Z,22.48
2019-03-25T13:57:46.403Z,22.58
2019-03-25T13:59:47.992Z,22.30
2019-03-25T14:01:49.630Z,22.30
2019-03-25T14:03:51.240Z,22.26
2019-03-25T14:05:52.892Z,22.17
2019-03-25T14:07:54.481Z,22.11
2019-03-25T14:09:56.100Z,22.10
2019-03-25T14:11:57.744Z,22.25
2019-03-25T14:14:00.341Z,22.33
2019-03-25T14:16:01.064Z,22.36
2019-03-25T14:18:02.656Z,22.38
2019-03-25T14:20:04.544Z,22.36
2019-03-25T14:22:06.199Z,22.35
2019-03-25T14:24:07.808Z,22.38
2019-03-25T14:26:09.419Z,22.38
2019-03-25T14:28:11.062Z,22.17
2019-03-25T14:30:14.870Z,22.26
2019-03-25T14:32:14.501Z,22.30
2019-03-25T14:34:16.097Z,22.09
2019-03-25T14:36:17.836Z,22.35
2019-03-25T14:38:19.424Z,22.29
2019-03-25T14:40:21.067Z,22.23
2019-03-25T14:42:22.676Z,22.19
2019-03-25T14:44:24.466Z,22.17
2019-03-25T14:46:26.082Z,22.06
2019-03-25T14:48:27.803Z,22.05
2019-03-25T14:50:29.412Z,22.02
2019-03-25T14:52:31.019Z,22.00
2019-03-25T14:54:32.608Z,22.02
2019-03-25T14:56:34.219Z,22.05
2019-03-25T14:58:35.935Z,22.05
2019-03-25T15:00:38.019Z,22.06
2019-03-25T15:02:39.903Z,22.09
2019-03-25T15:04:41.567Z,22.13
2019-03-25T15:06:43.211Z,22.06
2019-03-25T15:08:44.800Z,22.24
2019-03-25T15:10:53.513Z,22.30
2019-03-25T15:12:48.224Z,22.41
2019-03-25T15:14:49.836Z,22.49
2019-03-25T15:16:51.779Z,22.44
2019-03-25T15:18:53.350Z,22.50
2019-03-25T15:20:54.923Z,22.53
2019-03-25T15:22:56.508Z,22.57
2019-03-25T15:24:58.116Z,22.59
2019-03-25T15:26:59.736Z,22.60
2019-03-25T15:29:01.361Z,22.56
2019-03-25T15:31:03.056Z,22.58
2019-03-25T15:33:04.732Z,22.54
2019-03-25T15:35:06.324Z,22.50
2019-03-25T15:37:07.960Z,22.44
2019-03-25T15:39:09.564Z,22.41
2019-03-25T15:41:11.152Z,22.39
2019-03-25T15:43:12.728Z,22.32
2019-03-25T15:45:14.326Z,22.29
2019-03-25T15:47:15.968Z,22.23
2019-03-25T15:49:17.627Z,22.16
2019-03-25T15:51:19.220Z,22.12
2019-03-25T15:53:20.827Z,22.06
2019-03-25T15:55:22.476Z,22.01
2019-03-25T15:57:24.094Z,21.96
2019-03-25T15:59:25.701Z,21.91
2019-03-25T16:01:27.295Z,21.86
2019-03-25T16:03:28.883Z,21.82
2019-03-25T16:05:30.599Z,21.77
2019-03-25T16:07:32.302Z,21.61
2019-03-25T16:09:34.112Z,21.70
2019-03-25T16:11:35.823Z,21.70
2019-03-25T16:13:37.453Z,21.69
2019-03-25T16:15:39.091Z,21.50
2019-03-25T16:17:43.099Z,21.67
2019-03-25T16:19:42.344Z,21.71
2019-03-25T16:21:43.932Z,21.75
2019-03-25T16:23:45.502Z,21.77
2019-03-25T16:25:47.096Z,21.83
2019-03-25T16:27:48.696Z,21.89
2019-03-25T16:29:50.303Z,21.88
2019-03-25T16:31:51.901Z,21.98
2019-03-25T16:33:53.521Z,22.04
2019-03-25T16:35:55.115Z,22.04
2019-03-25T16:37:56.720Z,22.07
2019-03-25T16:39:58.372Z,22.08
2019-03-25T16:41:59.965Z,22.10
2019-03-25T16:44:01.581Z,22.12
2019-03-25T16:46:03.235Z,22.15
2019-03-25T16:48:04.827Z,22.15
2019-03-25T16:50:06.494Z,22.19
2019-03-25T16:52:08.088Z,22.18
2019-03-25T16:54:09.723Z,22.20
2019-03-25T16:56:11.949Z,22.24
2019-03-25T16:58:13.539Z,22.36
2019-03-25T17:00:26.614Z,22.84
2019-03-25T17:02:16.986Z,23.05
2019-03-25T17:04:18.591Z,23.35
2019-03-25T17:06:20.180Z,23.30
2019-03-25T17:08:21.778Z,23.31
2019-03-25T17:10:23.404Z,23.21
2019-03-25T17:12:25.020Z,23.27
2019-03-25T17:14:26.636Z,23.52
2019-03-25T17:16:28.248Z,23.52
2019-03-25T17:18:29.946Z,23.54
2019-03-25T17:20:31.562Z,23.67
2019-03-25T17:22:33.164Z,23.63
2019-03-25T17:24:34.775Z,23.45
2019-03-25T17:26:42.314Z,23.58
2019-03-25T17:28:38.061Z,23.57
2019-03-25T17:30:39.716Z,23.49
2019-03-25T17:32:41.303Z,23.43
2019-03-25T17:34:42.889Z,23.46
2019-03-25T17:36:44.494Z,23.42
2019-03-25T17:38:46.066Z,23.32
2019-03-25T17:40:47.683Z,23.40
2019-03-25T17:42:49.276Z,23.24
2019-03-25T17:44:50.880Z,23.33
2019-03-25T17:46:52.458Z,23.34
2019-03-25T17:48:54.044Z,23.49
2019-03-25T17:50:55.803Z,23.66
2019-03-25T17:52:57.392Z,23.76
2019-03-25T17:54:59.020Z,24.02
2019-03-25T17:57:00.636Z,23.90
2019-03-25T17:59:02.283Z,23.84
2019-03-25T18:01:03.894Z,23.80
2019-03-25T18:03:10.940Z,23.76
2019-03-25T18:05:07.414Z,23.98
2019-03-25T18:07:09.120Z,24.05
2019-03-25T18:09:10.759Z,24.00
2019-03-25T18:11:12.412Z,24.04
2019-03-25T18:13:22.028Z,24.04
2019-03-25T18:15:15.659Z,24.07
2019-03-25T18:17:17.275Z,24.09
2019-03-25T18:19:18.864Z,24.07
2019-03-25T18:21:20.546Z,24.17
2019-03-25T18:23:22.141Z,24.20
2019-03-25T18:25:23.746Z,24.01
2019-03-25T18:27:25.351Z,23.91
2019-03-25T18:29:26.941Z,23.63
2019-03-25T18:31:28.533Z,23.36
2019-03-25T18:33:30.134Z,23.25
2019-03-25T18:35:31.720Z,23.24
2019-03-25T18:37:33.972Z,23.22
2019-03-25T18:39:35.652Z,23.21
2019-03-25T18:41:37.363Z,23.21
2019-03-25T18:43:39.225Z,23.19
2019-03-25T18:45:40.872Z,23.14
2019-03-25T18:47:42.511Z,23.09
2019-03-25T18:49:44.100Z,23.10
2019-03-25T18:51:45.755Z,23.40
2019-03-25T18:53:47.417Z,23.61
2019-03-25T18:55:49.012Z,23.73
2019-03-25T18:57:50.637Z,23.60
2019-03-25T18:59:52.237Z,23.77
2019-03-25T19:01:54.782Z,23.80
2019-03-25T19:03:55.670Z,23.89
2019-03-25T19:05:57.273Z,23.87
2019-03-25T19:07:58.856Z,23.87
2019-03-25T19:10:00.491Z,23.85
2019-03-25T19:12:02.080Z,23.91
2019-03-25T19:14:04.954Z,23.95
2019-03-25T19:16:06.723Z,23.98
2019-03-25T19:18:08.471Z,23.98
2019-03-25T19:20:10.164Z,23.94
2019-03-25T19:22:12.955Z,24.06
2019-03-25T19:24:13.528Z,24.03
2019-03-25T19:26:15.172Z,24.08
2019-03-25T19:28:16.791Z,24.09
2019-03-25T19:30:19.211Z,24.06
2019-03-25T19:32:20.840Z,24.10
2019-03-25T19:34:22.426Z,24.20
2019-03-25T19:36:24.051Z,24.22
2019-03-25T19:38:25.680Z,24.23
2019-03-25T19:40:27.322Z,24.22
2019-03-25T19:42:28.984Z,24.16
2019-03-25T19:44:30.749Z,24.12
2019-03-25T19:46:32.453Z,24.23
2019-03-25T19:48:34.055Z,24.13
2019-03-25T19:50:35.684Z,24.11
2019-03-25T19:52:37.311Z,24.09
2019-03-25T19:54:38.978Z,24.13
2019-03-25T19:56:40.645Z,24.05
2019-03-25T19:58:42.288Z,24.12
2019-03-25T20:00:43.869Z,24.47
2019-03-25T20:02:45.543Z,24.81
2019-03-25T20:04:47.151Z,25.10
2019-03-25T20:06:48.753Z,24.76
2019-03-25T20:08:50.400Z,24.60
2019-03-25T20:10:52.024Z,24.48
2019-03-25T20:12:53.682Z,24.37
2019-03-25T20:14:55.300Z,24.13
2019-03-25T20:16:56.913Z,24.03
2019-03-25T20:18:58.622Z,24.20
2019-03-25T20:21:00.255Z,24.12
2019-03-25T20:23:01.965Z,24.16
2019-03-25T20:25:03.620Z,24.10
2019-03-25T20:27:05.228Z,24.03
2019-03-25T20:29:06.835Z,24.04
2019-03-25T20:31:08.467Z,23.99
2019-03-25T20:33:10.118Z,24.42
2019-03-25T20:35:11.851Z,24.23
2019-03-25T20:37:13.491Z,24.13
2019-03-25T20:39:15.076Z,24.07
2019-03-25T20:41:16.687Z,23.61
2019-03-25T20:43:18.353Z,23.80
2019-03-25T20:45:19.951Z,24.03
2019-03-25T20:47:21.692Z,23.98
2019-03-25T20:49:23.665Z,23.95
2019-03-25T20:51:25.291Z,24.02
2019-03-25T20:53:27.673Z,24.31
2019-03-25T20:55:29.419Z,24.19
2019-03-25T20:57:31.133Z,24.15
2019-03-25T20:59:32.731Z,24.18
2019-03-25T21:01:34.304Z,24.19
2019-03-25T21:03:35.906Z,24.50
2019-03-25T21:05:37.545Z,24.60
2019-03-25T21:07:39.244Z,24.36
2019-03-25T21:09:40.903Z,24.23
2019-03-25T21:11:42.498Z,24.13
2019-03-25T21:13:44.158Z,24.06
2019-03-25T21:15:45.789Z,24.04
2019-03-25T21:17:47.487Z,24.04
2019-03-25T21:19:49.113Z,24.29
2019-03-25T21:21:50.708Z,24.20
2019-03-25T21:23:52.413Z,24.05
2019-03-25T21:25:54.016Z,23.89
2019-03-25T21:27:55.606Z,24.07
2019-03-25T21:29:57.339Z,24.16
2019-03-25T21:31:59.465Z,24.22
2019-03-25T21:34:01.099Z,24.07
2019-03-25T21:36:02.781Z,24.01
2019-03-25T21:38:04.404Z,23.95
2019-03-25T21:40:06.011Z,23.92
2019-03-25T21:42:07.634Z,24.20
2019-03-25T21:44:09.243Z,24.12
2019-03-25T21:46:10.864Z,24.10
2019-03-25T21:48:12.601Z,24.03
2019-03-25T21:50:14.252Z,24.07
2019-03-25T21:52:15.870Z,24.56
2019-03-25T21:54:17.583Z,24.36
2019-03-25T21:56:19.291Z,24.27
2019-03-25T21:58:20.904Z,24.04
2019-03-25T22:00:22.528Z,23.59
2019-03-25T22:02:24.135Z,23.27
2019-03-25T22:04:25.736Z,22.27
2019-03-25T22:06:27.386Z,22.60
2019-03-25T22:08:29.040Z,22.86
2019-03-25T22:10:30.712Z,22.94
2019-03-25T22:12:32.311Z,22.99
2019-03-25T22:14:33.895Z,22.99
2019-03-25T22:16:35.510Z,22.96
2019-03-25T22:18:37.092Z,22.94
2019-03-25T22:20:38.727Z,22.88
2019-03-25T22:22:40.316Z,22.82
2019-03-25T22:24:41.901Z,22.78
2019-03-25T22:26:43.519Z,22.71
2019-03-25T22:28:45.128Z,22.69
2019-03-25T22:30:46.780Z,22.68
2019-03-25T22:32:48.382Z,22.69
2019-03-25T22:34:49.995Z,22.65
2019-03-25T22:36:51.628Z,22.63
2019-03-25T22:38:53.231Z,22.61
2019-03-25T22:40:54.862Z,22.59
2019-03-25T22:42:56.507Z,22.58
2019-03-25T22:44:58.203Z,22.45
2019-03-25T22:46:59.798Z,22.56
2019-03-25T22:49:01.412Z,22.56
2019-03-25T22:51:02.993Z,22.55
2019-03-25T22:53:04.583Z,22.54
2019-03-25T22:55:06.180Z,22.51
2019-03-25T22:57:07.896Z,22.49
2019-03-25T22:59:09.490Z,22.48
2019-03-25T23:01:11.104Z,22.47
2019-03-25T23:03:12.728Z,22.47
2019-03-25T23:05:14.342Z,22.45
2019-03-25T23:07:15.955Z,22.43
2019-03-25T23:09:17.558Z,22.38
2019-03-25T23:11:19.191Z,22.35
2019-03-25T23:13:20.779Z,22.32
2019-03-25T23:15:22.364Z,22.27
2019-03-25T23:17:24.008Z,22.23
2019-03-25T23:19:25.621Z,22.19
2019-03-25T23:21:27.199Z,22.21
2019-03-25T23:23:28.819Z,22.20
2019-03-25T23:25:30.406Z,22.18
2019-03-25T23:27:31.982Z,22.15
2019-03-25T23:29:33.562Z,22.12
2019-03-25T23:31:35.197Z,22.09
2019-03-25T23:33:36.806Z,22.07
2019-03-25T23:35:38.415Z,22.04
2019-03-25T23:37:40.019Z,22.03
2019-03-25T23:39:41.627Z,22.01
2019-03-25T23:41:43.276Z,21.99
2019-03-25T23:43:44.907Z,21.97
2019-03-25T23:45:46.528Z,21.93
2019-03-25T23:47:48.112Z,21.94
2019-03-25T23:49:49.718Z,21.94
2019-03-25T23:51:51.355Z,21.93
2019-03-25T23:53:52.945Z,21.90
2019-03-25T23:55:54.582Z,21.94
2019-03-25T23:57:56.160Z,21.96
2019-03-25T23:59:57.769Z,21.99
